createdAt,value
2019-03-03T00:09:05.458Z,43.07
2019-03-03T00:19:12.385Z,44.07
2019-03-03T00:29:17.754Z,44.57
2019-03-03T00:39:24.739Z,44.27
2019-03-03T00:49:34.662Z,43.23
2019-03-03T00:59:41.615Z,43.03
2019-03-03T01:10:06.861Z,43.90
2019-03-03T01:20:17.148Z,45.40
2019-03-03T01:30:22.539Z,43.20
2019-03-03T01:40:27.954Z,44.83
2019-03-03T01:50:33.463Z,41.40
2019-03-03T02:00:39.141Z,37.93
2019-03-03T02:10:44.611Z,35.67
2019-03-03T02:20:49.985Z,33.73
2019-03-03T02:30:56.359Z,29.93
2019-03-03T02:41:01.750Z,29.63
2019-03-03T02:51:07.108Z,27.87
2019-03-03T03:01:23.054Z,26.07
2019-03-03T03:11:29.985Z,26.47
2019-03-03T03:21:36.951Z,28.07
2019-03-03T03:31:43.883Z,28.13
2019-03-03T03:41:50.848Z,28.23
2019-03-03T03:52:14.410Z,28.90
2019-03-03T04:02:35.378Z,28.73
2019-03-03T04:12:42.345Z,28.63
2019-03-03T04:22:55.552Z,28.50
2019-03-03T04:33:11.323Z,29.33
2019-03-03T04:43:18.288Z,28.70
2019-03-03T04:53:25.247Z,28.87
2019-03-03T05:03:32.182Z,27.17
2019-03-03T05:13:51.153Z,25.67
2019-03-03T05:23:56.551Z,24.93
2019-03-03T05:34:01.943Z,26.57
2019-03-03T05:44:07.340Z,24.57
2019-03-03T05:54:12.726Z,24.70
2019-03-03T06:04:18.491Z,24.50
2019-03-03T06:14:23.852Z,23.03
2019-03-03T06:24:29.226Z,25.03
2019-03-03T06:34:34.720Z,27.37
2019-03-03T06:44:40.103Z,25.93
2019-03-03T06:54:51.415Z,29.63
2019-03-03T07:04:56.767Z,29.20
2019-03-03T07:15:02.157Z,32.13
2019-03-03T07:25:09.794Z,33.10
2019-03-03T07:35:15.735Z,32.33
2019-03-03T07:45:21.397Z,29.63
2019-03-03T07:55:26.742Z,27.40
2019-03-03T08:05:32.527Z,29.73
2019-03-03T08:15:37.910Z,28.03
2019-03-03T08:25:49.704Z,27.77
2019-03-03T08:35:55.170Z,27.60
2019-03-03T08:46:02.122Z,29.13
2019-03-03T08:56:09.080Z,28.40
2019-03-03T09:06:16.029Z,29.03
2019-03-03T09:16:39.207Z,31.20
2019-03-03T09:26:52.253Z,28.43
2019-03-03T09:37:01.900Z,27.20
2019-03-03T09:47:08.855Z,23.87
2019-03-03T09:57:33.910Z,21.77
2019-03-03T10:07:57.165Z,23.53
2019-03-03T10:18:07.210Z,23.47
2019-03-03T10:28:26.368Z,23.43
2019-03-03T10:38:39.521Z,24.67
2019-03-03T10:48:55.946Z,21.70
2019-03-03T10:59:18.232Z,21.17
2019-03-03T11:09:25.444Z,22.53
2019-03-03T11:19:38.294Z,22.77
2019-03-03T11:29:48.868Z,23.90
2019-03-03T11:40:04.565Z,22.33
2019-03-03T11:50:27.372Z,12.77
2019-03-03T12:00:36.461Z,12.20
2019-03-03T12:10:51.290Z,21.10
2019-03-03T12:21:14.560Z,21.17
2019-03-03T12:31:36.668Z,20.47
2019-03-03T12:41:55.959Z,18.20
2019-03-03T12:52:05.672Z,19.87
2019-03-03T13:02:15.539Z,15.73
2019-03-03T13:12:28.316Z,17.63
2019-03-03T13:22:51.290Z,16.37
2019-03-03T13:33:00.987Z,15.80
2019-03-03T13:43:06.335Z,16.00
2019-03-03T13:53:13.316Z,15.67
2019-03-03T14:03:18.675Z,16.07
2019-03-03T14:13:24.117Z,15.43
2019-03-03T14:23:29.516Z,15.30
2019-03-03T14:33:34.880Z,14.67
2019-03-03T14:43:40.250Z,13.00
2019-03-03T14:53:46.743Z,10.77
2019-03-03T15:03:52.159Z,11.67
2019-03-03T15:13:58.620Z,10.77
2019-03-03T15:24:04.142Z,10.23
2019-03-03T15:34:09.914Z,8.93
2019-03-03T15:44:16.486Z,8.90
2019-03-03T15:54:21.874Z,9.43
2019-03-03T16:04:27.233Z,9.73
2019-03-03T16:14:32.752Z,11.43
2019-03-03T16:24:39.991Z,10.17
2019-03-03T16:34:45.755Z,13.07
2019-03-03T16:44:51.095Z,12.07
2019-03-03T16:54:56.483Z,11.30
2019-03-03T17:05:01.936Z,11.90
2019-03-03T17:15:10.243Z,11.50
2019-03-03T17:25:24.406Z,10.97
2019-03-03T17:35:32.347Z,11.33
2019-03-03T17:45:37.856Z,13.03
2019-03-03T17:55:43.221Z,12.30
2019-03-03T18:05:50.636Z,14.63
2019-03-03T18:15:56.759Z,15.50
2019-03-03T18:26:02.213Z,15.10
2019-03-03T18:36:07.668Z,12.70
2019-03-03T18:46:17.726Z,12.70
2019-03-03T18:56:23.387Z,15.70
2019-03-03T19:06:30.784Z,15.53
2019-03-03T19:16:36.384Z,14.03
2019-03-03T19:26:41.889Z,12.80
2019-03-03T19:36:47.331Z,15.00
2019-03-03T19:46:53.339Z,15.90
2019-03-03T19:57:00.449Z,12.70
2019-03-03T20:07:06.582Z,12.00
2019-03-03T20:17:11.920Z,13.70
2019-03-03T20:27:18.800Z,14.17
2019-03-03T20:37:25.373Z,13.77
2019-03-03T20:47:32.344Z,12.30
2019-03-03T20:57:37.712Z,11.30
2019-03-03T21:07:50.997Z,11.97
2019-03-03T21:17:50.500Z,12.10
2019-03-03T21:27:55.885Z,12.27
2019-03-03T21:38:01.230Z,10.20
2019-03-03T21:48:06.616Z,11.50
2019-03-03T21:58:12.044Z,9.90
2019-03-03T22:08:17.383Z,9.80
2019-03-03T22:18:22.761Z,10.80
2019-03-03T22:28:28.125Z,11.17
2019-03-03T22:38:39.477Z,10.57
2019-03-03T22:48:44.851Z,9.73
2019-03-03T22:58:50.211Z,9.40
2019-03-03T23:08:58.496Z,8.43
2019-03-03T23:19:30.486Z,10.07
2019-03-03T23:29:35.863Z,9.70
2019-03-03T23:39:41.223Z,8.87
2019-03-03T23:49:46.591Z,9.30
2019-03-03T23:59:52.102Z,6.50
